Time;durP1;ratioP1;P1;durP2;ratioP2;P2;SDS_P1;SDS_P2;PMS_P1;PMS_P2;Temp;Humidity;BMP_temperature;BMP_pressure;BME280_temperature;BME280_humidity;BME280_pressure;Samples;Min_cycle;Max_cycle;Signal;HPM_P1;HPM_P2
2023/04/14 00:00:35;;;;;;;;;;;4.40;99.90;;;;;;5078616;28;19924;-85
2023/04/14 00:03:01;;;;;;;;;;;4.40;99.90;;;;;;5098287;28;20322;-85
2023/04/14 00:05:28;;;;;;;;;;;4.40;99.90;;;;;;5099778;28;19924;-85
2023/04/14 00:07:53;;;;;;;;;;;4.60;99.90;;;;;;5095770;28;20038;-86
2023/04/14 00:10:19;;;;;;;;;;;4.90;99.90;;;;;;5076943;28;20012;-86
2023/04/14 00:12:44;;;;;;;;;;;4.40;99.90;;;;;;5079600;28;20352;-85
2023/04/14 00:15:10;;;;;;;;;;;4.30;99.90;;;;;;5095191;28;19982;-86
2023/04/14 00:17:36;;;;;;;;;;;4.40;99.90;;;;;;5094629;28;20229;-85
2023/04/14 00:20:02;;;;;;;;;;;5.60;99.90;;;;;;5079046;28;19939;-85
2023/04/14 00:22:28;;;;;;;;;;;4.40;99.90;;;;;;5099414;28;19939;-86
2023/04/14 00:24:54;;;;;;;;;;;4.30;99.90;;;;;;5097549;28;19924;-85
2023/04/14 00:27:20;;;;;;;;;;;4.30;99.90;;;;;;5114938;27;20023;-85
2023/04/14 00:29:46;;;;;;;;;;;4.30;99.90;;;;;;5096857;28;20019;-85
2023/04/14 00:32:11;;;;;;;;;;;4.30;99.90;;;;;;5089891;28;19981;-87
2023/04/14 00:34:37;;;;;;;;;;;4.30;99.90;;;;;;5083248;28;20268;-85
2023/04/14 00:37:02;;;;;;;;;;;4.30;99.90;;;;;;5103684;28;19924;-85
2023/04/14 00:39:28;;;;;;;;;;;5.60;99.90;;;;;;5083448;28;19927;-87
2023/04/14 00:41:53;;;;;;;;;;;4.20;99.90;;;;;;5083199;28;19931;-87
2023/04/14 00:44:19;;;;;;;;;;;5.80;99.90;;;;;;5078546;28;19966;-85
2023/04/14 00:46:45;;;;;;;;;;;4.10;99.90;;;;;;5098706;28;20114;-85
2023/04/14 00:49:14;;;;;;;;;;;4.20;99.90;;;;;;5069810;28;20293;-87
2023/04/14 00:51:40;;;;;;;;;;;4.00;99.90;;;;;;5083008;28;20010;-87
2023/04/14 00:54:06;;;;;;;;;;;4.10;99.90;;;;;;5079701;28;20008;-87
2023/04/14 00:56:32;;;;;;;;;;;3.90;99.90;;;;;;5099712;28;19924;-88
2023/04/14 00:58:59;;;;;;;;;;;3.90;99.90;;;;;;5089094;28;19975;-87
2023/04/14 01:01:26;;;;;;;;;;;3.90;99.90;;;;;;5110155;28;20046;-85
2023/04/14 01:03:52;;;;;;;;;;;3.90;99.90;;;;;;5099962;28;19971;-87
2023/04/14 01:06:17;;;;;;;;;;;5.10;99.90;;;;;;5073808;28;19975;-87
2023/04/14 01:08:43;;;;;;;;;;;3.90;99.90;;;;;;5089366;28;19924;-88
2023/04/14 01:11:09;;;;;;;;;;;4.40;99.90;;;;;;5081191;28;19924;-85
2023/04/14 01:13:37;;;;;;;;;;;4.80;99.90;;;;;;5134421;27;19924;-85
2023/04/14 01:16:05;;;;;;;;;;;3.90;99.90;;;;;;5085118;28;19972;-88
2023/04/14 01:18:50;;;;;;;;;;;3.90;99.90;;;;;;5106032;28;20004;-87
2023/04/14 01:21:27;;;;;;;;;;;4.00;99.90;;;;;;5085246;28;20416;-87
2023/04/14 01:24:16;;;;;;;;;;;4.00;99.90;;;;;;5096983;28;19931;-88
2023/04/14 01:26:43;;;;;;;;;;;4.10;99.90;;;;;;5079631;28;20065;-88
2023/04/14 01:29:11;;;;;;;;;;;4.00;99.90;;;;;;5101095;28;19927;-85
2023/04/14 01:31:45;;;;;;;;;;;4.00;99.90;;;;;;5103502;28;19973;-85
2023/04/14 01:34:30;;;;;;;;;;;4.10;99.90;;;;;;5079349;28;20375;-88
2023/04/14 01:36:56;;;;;;;;;;;4.10;99.90;;;;;;5092349;28;19971;-87
2023/04/14 01:39:25;;;;;;;;;;;4.10;99.90;;;;;;5101867;28;20221;-88
2023/04/14 01:41:53;;;;;;;;;;;5.30;99.90;;;;;;5125954;27;19946;-87
2023/04/14 01:44:21;;;;;;;;;;;4.00;99.90;;;;;;5107015;28;19930;-87
2023/04/14 01:46:50;;;;;;;;;;;4.90;99.90;;;;;;5098271;28;20290;-87
2023/04/14 01:49:18;;;;;;;;;;;3.90;99.90;;;;;;5090006;28;20070;-87
2023/04/14 01:51:44;;;;;;;;;;;3.90;99.90;;;;;;5075560;28;19924;-87
2023/04/14 01:54:10;;;;;;;;;;;4.30;99.90;;;;;;5095139;28;19946;-87
2023/04/14 01:56:39;;;;;;;;;;;4.00;99.90;;;;;;5073414;28;19924;-85
2023/04/14 01:59:06;;;;;;;;;;;3.70;99.90;;;;;;5091059;28;19928;-86
2023/04/14 02:01:33;;;;;;;;;;;3.90;99.90;;;;;;5091252;28;20422;-87
2023/04/14 02:04:00;;;;;;;;;;;3.70;99.90;;;;;;5093876;28;20300;-85
2023/04/14 02:06:27;;;;;;;;;;;3.70;99.90;;;;;;5090004;28;20356;-87
2023/04/14 02:08:53;;;;;;;;;;;3.60;99.90;;;;;;5089502;28;19934;-87
2023/04/14 02:11:19;;;;;;;;;;;4.70;99.90;;;;;;5074817;28;19928;-87
2023/04/14 02:13:45;;;;;;;;;;;3.60;99.90;;;;;;5094527;28;19939;-87
2023/04/14 02:16:12;;;;;;;;;;;3.60;99.90;;;;;;5063882;28;20372;-87
2023/04/14 02:18:38;;;;;;;;;;;3.60;99.90;;;;;;5078907;28;19935;-87
2023/04/14 02:21:04;;;;;;;;;;;3.60;99.90;;;;;;5081222;28;20364;-88
2023/04/14 02:23:33;;;;;;;;;;;3.60;99.90;;;;;;5097334;28;19924;-87
2023/04/14 02:26:04;;;;;;;;;;;1.60;99.90;;;;;;5080554;28;20007;-87
2023/04/14 02:28:32;;;;;;;;;;;3.50;99.90;;;;;;5095609;28;20066;-87
2023/04/14 02:30:59;;;;;;;;;;;3.50;99.90;;;;;;5098157;28;20308;-87
2023/04/14 02:33:28;;;;;;;;;;;3.60;99.90;;;;;;5094650;28;20295;-88
2023/04/14 02:36:01;;;;;;;;;;;3.60;99.90;;;;;;5076996;28;20379;-85
2023/04/14 02:38:31;;;;;;;;;;;3.60;99.90;;;;;;5095197;28;20294;-87
2023/04/14 02:40:59;;;;;;;;;;;3.50;99.90;;;;;;5096058;28;19930;-88
2023/04/14 02:43:29;;;;;;;;;;;3.60;99.90;;;;;;5094677;28;20027;-88
2023/04/14 02:45:55;;;;;;;;;;;3.60;99.90;;;;;;5094961;28;19928;-87
2023/04/14 02:48:23;;;;;;;;;;;3.60;99.90;;;;;;5093268;28;19977;-88
2023/04/14 02:50:51;;;;;;;;;;;3.60;99.90;;;;;;5095410;28;19936;-87
2023/04/14 02:53:20;;;;;;;;;;;3.60;99.90;;;;;;5096608;28;20414;-88
2023/04/14 02:55:46;;;;;;;;;;;4.20;99.90;;;;;;5092913;28;19924;-85
2023/04/14 02:58:13;;;;;;;;;;;3.60;99.90;;;;;;5096648;28;19970;-84
2023/04/14 03:00:39;;;;;;;;;;;3.60;99.90;;;;;;5077025;28;20019;-85
2023/04/14 03:03:06;;;;;;;;;;;3.50;99.90;;;;;;5094919;28;19932;-85
2023/04/14 03:05:32;;;;;;;;;;;3.50;99.90;;;;;;5093743;28;19931;-85
2023/04/14 03:07:59;;;;;;;;;;;3.50;99.90;;;;;;5077728;28;19924;-85
2023/04/14 03:10:25;;;;;;;;;;;3.50;99.90;;;;;;5095871;28;20015;-88
2023/04/14 03:12:51;;;;;;;;;;;4.80;99.90;;;;;;5078506;28;19924;-87
2023/04/14 03:15:18;;;;;;;;;;;3.50;99.90;;;;;;5080768;28;19977;-85
2023/04/14 03:17:46;;;;;;;;;;;3.40;99.90;;;;;;5080423;28;19966;-85
2023/04/14 03:20:13;;;;;;;;;;;3.50;99.90;;;;;;5129031;27;19946;-85
2023/04/14 03:22:40;;;;;;;;;;;3.70;99.90;;;;;;5093856;28;19928;-85
2023/04/14 03:25:06;;;;;;;;;;;3.40;99.90;;;;;;5100219;28;19924;-85
2023/04/14 03:27:32;;;;;;;;;;;3.30;99.90;;;;;;5096201;28;19989;-85
2023/04/14 03:30:02;;;;;;;;;;;5.10;99.90;;;;;;5111733;28;19928;-85
2023/04/14 03:32:32;;;;;;;;;;;3.30;99.90;;;;;;5100673;28;19928;-85
2023/04/14 03:35:00;;;;;;;;;;;3.40;99.90;;;;;;5095349;28;19924;-85
2023/04/14 03:37:26;;;;;;;;;;;3.60;99.90;;;;;;5074567;28;20299;-85
2023/04/14 03:39:53;;;;;;;;;;;3.30;99.90;;;;;;5098966;28;20213;-87
2023/04/14 03:42:19;;;;;;;;;;;3.30;99.90;;;;;;5071324;28;19928;-88
2023/04/14 03:49:58;;;;;;;;;;;3.30;99.90;;;;;;4789838;22;19933;-87
2023/04/14 03:52:25;;;;;;;;;;;3.30;99.90;;;;;;4987310;28;19933;-86
2023/04/14 03:54:52;;;;;;;;;;;3.50;99.90;;;;;;4947212;28;20326;-86
2023/04/14 03:57:21;;;;;;;;;;;3.30;99.90;;;;;;4974198;28;20020;-86
2023/04/14 03:59:50;;;;;;;;;;;3.30;99.90;;;;;;4974941;28;19926;-85
2023/04/14 04:02:16;;;;;;;;;;;2.20;99.90;;;;;;4960197;28;19926;-85
2023/04/14 04:04:42;;;;;;;;;;;3.20;99.90;;;;;;4959974;28;19980;-85
2023/04/14 04:07:10;;;;;;;;;;;3.20;99.90;;;;;;4959923;28;19991;-86
2023/04/14 04:09:37;;;;;;;;;;;3.40;99.90;;;;;;4959612;28;20392;-85
2023/04/14 04:12:03;;;;;;;;;;;3.20;99.90;;;;;;4975824;28;19933;-85
2023/04/14 04:14:30;;;;;;;;;;;3.10;99.90;;;;;;4975713;28;20056;-85
2023/04/14 04:16:58;;;;;;;;;;;3.20;99.90;;;;;;4976606;28;19926;-85
2023/04/14 04:19:24;;;;;;;;;;;3.20;99.90;;;;;;4976522;28;19926;-85
2023/04/14 04:21:51;;;;;;;;;;;3.40;99.90;;;;;;4975658;28;19933;-86
2023/04/14 04:24:18;;;;;;;;;;;3.30;99.90;;;;;;4975935;28;19933;-85
2023/04/14 04:26:44;;;;;;;;;;;3.10;99.90;;;;;;4959317;28;20368;-85
2023/04/14 04:29:10;;;;;;;;;;;3.70;99.90;;;;;;4976323;28;19973;-85
2023/04/14 04:31:35;;;;;;;;;;;3.20;99.90;;;;;;4975690;28;19926;-85
2023/04/14 04:34:02;;;;;;;;;;;3.20;99.90;;;;;;4960191;28;20253;-85
2023/04/14 04:36:30;;;;;;;;;;;3.20;99.90;;;;;;4959612;28;20289;-85
2023/04/14 04:38:56;;;;;;;;;;;0.80;99.90;;;;;;4975446;28;19985;-85
2023/04/14 04:41:24;;;;;;;;;;;3.70;99.90;;;;;;4975295;28;19930;-85
2023/04/14 04:43:50;;;;;;;;;;;3.20;99.90;;;;;;4975342;28;19934;-85
2023/04/14 04:46:39;;;;;;;;;;;4.00;99.90;;;;;;4975900;28;20012;-85
2023/04/14 04:49:05;;;;;;;;;;;3.20;99.90;;;;;;4975203;28;19926;-86
2023/04/14 04:51:30;;;;;;;;;;;4.70;99.90;;;;;;4975454;28;19953;-85
2023/04/14 04:53:56;;;;;;;;;;;3.20;99.90;;;;;;4975946;28;19928;-85
2023/04/14 04:56:21;;;;;;;;;;;3.60;99.90;;;;;;4959172;28;19926;-85
2023/04/14 04:58:47;;;;;;;;;;;4.60;99.90;;;;;;4958894;28;19926;-86
2023/04/14 05:01:14;;;;;;;;;;;5.00;99.90;;;;;;4975041;28;20259;-85
2023/04/14 05:03:40;;;;;;;;;;;3.20;99.90;;;;;;4958906;28;19973;-85
2023/04/14 05:06:06;;;;;;;;;;;4.10;99.90;;;;;;4975197;28;20357;-85
2023/04/14 05:08:31;;;;;;;;;;;3.30;99.90;;;;;;4974560;28;20022;-85
2023/04/14 05:10:57;;;;;;;;;;;3.60;99.90;;;;;;4974849;28;19926;-85
2023/04/14 05:13:22;;;;;;;;;;;3.30;99.90;;;;;;4958407;28;20282;-85
2023/04/14 05:15:48;;;;;;;;;;;3.30;99.90;;;;;;4975592;28;19926;-85
2023/04/14 05:18:14;;;;;;;;;;;3.40;99.90;;;;;;4974800;28;19932;-85
2023/04/14 05:20:39;;;;;;;;;;;3.40;99.90;;;;;;4974996;28;19926;-85
2023/04/14 05:23:05;;;;;;;;;;;4.40;99.90;;;;;;4958822;28;20243;-85
2023/04/14 05:25:31;;;;;;;;;;;3.70;99.90;;;;;;4974596;28;19981;-85
2023/04/14 05:27:56;;;;;;;;;;;3.60;99.90;;;;;;4974281;28;19935;-85
2023/04/14 05:30:22;;;;;;;;;;;3.70;99.90;;;;;;4974523;28;19984;-86
2023/04/14 05:32:48;;;;;;;;;;;4.00;99.90;;;;;;4974557;28;20020;-87
2023/04/14 05:35:14;;;;;;;;;;;4.70;99.90;;;;;;4975287;28;19973;-86
2023/04/14 05:37:40;;;;;;;;;;;3.90;99.90;;;;;;4974500;28;20441;-86
2023/04/14 05:40:06;;;;;;;;;;;3.90;99.90;;;;;;4974144;28;19965;-86
2023/04/14 05:42:31;;;;;;;;;;;4.00;99.90;;;;;;4974371;28;19933;-85
2023/04/14 05:44:57;;;;;;;;;;;4.60;99.90;;;;;;4974652;28;20367;-85
2023/04/14 05:47:23;;;;;;;;;;;4.30;99.90;;;;;;4958150;28;19926;-85
2023/04/14 05:49:48;;;;;;;;;;;4.20;99.90;;;;;;4978186;28;20358;-86
2023/04/14 05:52:14;;;;;;;;;;;5.70;99.90;;;;;;4997080;28;19953;-85
2023/04/14 05:54:40;;;;;;;;;;;4.30;99.90;;;;;;4964665;28;19953;-86
2023/04/14 05:57:05;;;;;;;;;;;4.40;99.90;;;;;;4980636;28;19945;-87
2023/04/14 05:59:33;;;;;;;;;;;4.40;99.90;;;;;;4964286;28;19934;-85
2023/04/14 06:02:04;;;;;;;;;;;4.50;99.90;;;;;;4964331;28;20386;-84
2023/04/14 06:04:29;;;;;;;;;;;4.70;99.90;;;;;;4980709;28;19926;-87
2023/04/14 06:06:55;;;;;;;;;;;4.70;99.90;;;;;;4980477;28;19937;-85
2023/04/14 06:09:20;;;;;;;;;;;4.80;99.90;;;;;;4964259;28;19992;-85
2023/04/14 06:11:46;;;;;;;;;;;5.00;99.90;;;;;;4980299;28;19926;-87
2023/04/14 06:14:12;;;;;;;;;;;5.10;99.90;;;;;;4964699;28;20005;-86
2023/04/14 06:16:37;;;;;;;;;;;5.20;99.90;;;;;;4964282;28;19973;-85
2023/04/14 06:19:03;;;;;;;;;;;5.30;99.90;;;;;;4981587;28;19938;-88
2023/04/14 06:21:28;;;;;;;;;;;5.40;99.90;;;;;;4979624;28;19925;-87
2023/04/14 06:23:54;;;;;;;;;;;5.50;99.90;;;;;;4964033;28;19930;-87
2023/04/14 06:26:21;;;;;;;;;;;5.60;99.90;;;;;;4980316;28;19930;-87
2023/04/14 06:28:46;;;;;;;;;;;5.70;99.90;;;;;;4980071;28;19926;-85
2023/04/14 06:31:13;;;;;;;;;;;5.90;99.90;;;;;;4964019;28;19926;-87
2023/04/14 06:33:38;;;;;;;;;;;5.90;99.90;;;;;;4980391;28;20247;-87
2023/04/14 06:36:04;;;;;;;;;;;6.00;99.90;;;;;;4964082;28;20026;-87
2023/04/14 06:38:30;;;;;;;;;;;6.10;99.90;;;;;;4980966;28;19936;-86
2023/04/14 06:40:55;;;;;;;;;;;6.10;99.90;;;;;;4980255;28;20262;-87
2023/04/14 06:43:23;;;;;;;;;;;6.40;99.90;;;;;;4981113;28;19933;-86
2023/04/14 06:45:49;;;;;;;;;;;6.20;99.90;;;;;;4980828;28;19926;-86
2023/04/14 06:48:15;;;;;;;;;;;6.30;99.90;;;;;;4963851;28;20345;-87
2023/04/14 06:50:40;;;;;;;;;;;6.30;99.90;;;;;;4979923;28;19926;-86
2023/04/14 06:53:08;;;;;;;;;;;6.40;99.90;;;;;;4966304;28;19927;-87
2023/04/14 06:55:34;;;;;;;;;;;6.40;99.90;;;;;;4982523;28;19934;-87
2023/04/14 06:57:59;;;;;;;;;;;6.50;99.90;;;;;;4966105;28;19930;-87
2023/04/14 07:00:25;;;;;;;;;;;6.50;99.90;;;;;;4980940;28;19926;-87
2023/04/14 07:02:50;;;;;;;;;;;6.50;99.90;;;;;;4962682;28;19926;-87
2023/04/14 07:05:17;;;;;;;;;;;6.60;99.90;;;;;;4976977;28;19976;-87
2023/04/14 07:07:42;;;;;;;;;;;6.60;99.90;;;;;;4976531;28;19933;-86
2023/04/14 07:10:08;;;;;;;;;;;6.60;99.90;;;;;;4976897;28;19926;-87
2023/04/14 07:12:34;;;;;;;;;;;6.70;99.90;;;;;;4961213;28;20386;-86
2023/04/14 07:14:59;;;;;;;;;;;6.80;99.90;;;;;;4960636;28;20425;-86
2023/04/14 07:17:25;;;;;;;;;;;6.90;99.90;;;;;;4976584;28;19934;-86
2023/04/14 07:19:51;;;;;;;;;;;7.00;99.90;;;;;;4976661;28;20370;-86
2023/04/14 07:22:16;;;;;;;;;;;7.00;99.90;;;;;;4960238;28;19926;-87
2023/04/14 07:24:42;;;;;;;;;;;7.10;99.90;;;;;;4976673;28;19926;-86
2023/04/14 07:27:13;;;;;;;;;;;7.10;99.90;;;;;;4976289;28;20351;-86
2023/04/14 07:29:40;;;;;;;;;;;7.20;99.90;;;;;;4976659;28;19954;-88
2023/04/14 07:32:06;;;;;;;;;;;7.30;99.90;;;;;;4975927;28;19977;-87
2023/04/14 07:34:31;;;;;;;;;;;7.40;99.90;;;;;;4976297;28;19934;-88
2023/04/14 07:36:57;;;;;;;;;;;7.50;99.90;;;;;;4976088;28;19981;-86
2023/04/14 07:39:23;;;;;;;;;;;7.60;99.90;;;;;;4975775;28;19973;-86
2023/04/14 07:41:48;;;;;;;;;;;7.60;99.90;;;;;;4976131;28;19926;-86
2023/04/14 07:44:14;;;;;;;;;;;7.70;99.90;;;;;;4960281;28;19927;-86
2023/04/14 07:46:40;;;;;;;;;;;7.80;99.90;;;;;;4975841;28;19930;-87
2023/04/14 07:49:05;;;;;;;;;;;7.90;99.90;;;;;;4975743;28;19926;-86
2023/04/14 07:51:31;;;;;;;;;;;7.90;99.90;;;;;;4976219;28;20289;-87
2023/04/14 07:53:57;;;;;;;;;;;8.00;99.90;;;;;;4975569;28;20369;-87
2023/04/14 07:56:23;;;;;;;;;;;8.00;99.90;;;;;;4975344;28;19926;-87
2023/04/14 07:58:48;;;;;;;;;;;8.10;99.90;;;;;;4975666;28;19926;-88
2023/04/14 08:01:14;;;;;;;;;;;8.20;99.90;;;;;;4975857;28;19926;-87
2023/04/14 08:03:40;;;;;;;;;;;8.20;99.90;;;;;;4975609;28;20351;-88
2023/04/14 08:06:06;;;;;;;;;;;8.30;99.90;;;;;;4959524;28;19926;-89
2023/04/14 08:08:32;;;;;;;;;;;8.40;99.90;;;;;;4959256;28;19930;-86
2023/04/14 08:10:58;;;;;;;;;;;8.50;99.90;;;;;;4975480;28;20285;-87
2023/04/14 08:13:23;;;;;;;;;;;8.60;99.90;;;;;;4974360;28;20034;-88
2023/04/14 08:15:51;;;;;;;;;;;8.70;99.90;;;;;;4975378;28;19933;-86
2023/04/14 08:18:17;;;;;;;;;;;8.80;99.90;;;;;;4975311;28;20053;-86
2023/04/14 08:20:43;;;;;;;;;;;8.90;99.90;;;;;;4976011;28;19969;-87
2023/04/14 08:23:11;;;;;;;;;;;9.00;99.90;;;;;;4959419;28;19933;-87
2023/04/14 08:25:37;;;;;;;;;;;9.00;99.90;;;;;;4959067;28;20385;-87
2023/04/14 08:28:02;;;;;;;;;;;9.10;99.90;;;;;;4974731;28;19930;-87
2023/04/14 08:30:28;;;;;;;;;;;9.10;99.90;;;;;;4959037;28;19927;-86
2023/04/14 08:32:54;;;;;;;;;;;9.10;99.90;;;;;;4958973;28;19926;-87
2023/04/14 08:35:22;;;;;;;;;;;9.20;99.90;;;;;;4975268;28;19930;-86
2023/04/14 08:37:48;;;;;;;;;;;9.60;99.90;;;;;;4974654;28;19981;-87
2023/04/14 08:40:17;;;;;;;;;;;9.30;99.90;;;;;;4974955;28;19984;-87
2023/04/14 08:42:44;;;;;;;;;;;9.30;99.90;;;;;;4975351;28;20016;-88
2023/04/14 08:45:12;;;;;;;;;;;9.50;99.90;;;;;;4974823;28;20350;-88
2023/04/14 08:47:39;;;;;;;;;;;7.90;99.90;;;;;;4974536;28;19926;-88
2023/04/14 08:50:24;;;;;;;;;;;9.70;99.90;;;;;;4974574;28;19933;-87
2023/04/14 08:52:54;;;;;;;;;;;9.80;99.90;;;;;;4959393;28;19930;-88
2023/04/14 08:55:19;;;;;;;;;;;9.90;99.90;;;;;;4959325;28;20263;-87
2023/04/14 08:57:46;;;;;;;;;;;10.00;99.90;;;;;;4959310;28;19958;-88
2023/04/14 09:00:16;;;;;;;;;;;10.00;99.90;;;;;;4974676;28;19953;-87
2023/04/14 09:02:42;;;;;;;;;;;10.10;99.90;;;;;;4958543;28;19926;-86
2023/04/14 09:05:07;;;;;;;;;;;10.20;99.90;;;;;;4974492;28;19933;-87
2023/04/14 09:07:33;;;;;;;;;;;10.30;99.90;;;;;;4974409;28;19926;-87
2023/04/14 09:09:59;;;;;;;;;;;10.30;99.90;;;;;;4974728;28;19930;-87
2023/04/14 09:12:26;;;;;;;;;;;10.40;99.90;;;;;;4974313;28;20347;-87
2023/04/14 09:14:55;;;;;;;;;;;10.50;99.90;;;;;;4974555;28;19934;-89
2023/04/14 09:17:25;;;;;;;;;;;10.60;99.90;;;;;;4959527;28;19932;-87
2023/04/14 09:19:51;;;;;;;;;;;10.70;99.90;;;;;;4974065;28;20366;-87
2023/04/14 09:22:17;;;;;;;;;;;10.80;99.90;;;;;;4958250;28;19933;-88
2023/04/14 09:24:42;;;;;;;;;;;10.80;99.90;;;;;;4973619;28;19955;-90
2023/04/14 09:27:14;;;;;;;;;;;9.40;99.90;;;;;;4957339;28;19926;-90
2023/04/14 09:29:47;;;;;;;;;;;11.00;99.90;;;;;;4958242;28;20009;-87
2023/04/14 09:32:14;;;;;;;;;;;11.50;99.90;;;;;;4957988;28;20392;-88
2023/04/14 09:34:51;;;;;;;;;;;11.20;99.90;;;;;;4974115;28;19946;-90
2023/04/14 09:37:20;;;;;;;;;;;11.70;99.90;;;;;;4958077;28;19970;-88
2023/04/14 09:39:48;;;;;;;;;;;10.00;99.90;;;;;;4975085;28;19926;-88
2023/04/14 09:42:16;;;;;;;;;;;11.50;99.90;;;;;;4958390;28;20273;-87
2023/04/14 09:44:53;;;;;;;;;;;11.50;99.90;;;;;;4974292;28;19926;-89
2023/04/14 09:47:23;;;;;;;;;;;11.60;99.90;;;;;;4973913;28;19995;-89
2023/04/14 09:49:56;;;;;;;;;;;11.70;99.90;;;;;;4957731;28;19933;-90
2023/04/14 09:52:22;;;;;;;;;;;11.70;99.90;;;;;;4974526;28;20302;-89
2023/04/14 09:54:53;;;;;;;;;;;13.40;99.90;;;;;;4973775;28;19932;-88
2023/04/14 09:57:25;;;;;;;;;;;14.30;99.90;;;;;;4957865;28;19926;-86
2023/04/14 09:59:51;;;;;;;;;;;12.00;99.90;;;;;;4958015;28;20021;-89
2023/04/14 10:02:25;;;;;;;;;;;12.00;99.90;;;;;;4974014;28;19981;-89
2023/04/14 10:05:06;;;;;;;;;;;12.10;99.90;;;;;;4974845;28;19926;-87
2023/04/14 10:07:32;;;;;;;;;;;12.10;99.90;;;;;;4957828;28;19951;-87
2023/04/14 10:10:04;;;;;;;;;;;12.30;99.90;;;;;;4973734;28;19991;-89
2023/04/14 10:12:30;;;;;;;;;;;12.30;99.90;;;;;;4958014;28;20024;-86
2023/04/14 10:14:56;;;;;;;;;;;12.30;99.90;;;;;;4958348;28;20036;-86
2023/04/14 10:17:22;;;;;;;;;;;12.10;99.90;;;;;;4972814;28;20017;-87
2023/04/14 10:19:48;;;;;;;;;;;12.00;99.90;;;;;;4957433;28;20016;-86
2023/04/14 10:22:15;;;;;;;;;;;11.80;99.90;;;;;;4973754;28;19926;-86
2023/04/14 10:24:42;;;;;;;;;;;11.70;99.90;;;;;;4957387;28;20021;-86
2023/04/14 10:27:08;;;;;;;;;;;11.70;99.90;;;;;;4973570;28;19926;-86
2023/04/14 10:29:34;;;;;;;;;;;11.80;99.90;;;;;;4973732;28;19933;-86
2023/04/14 10:31:59;;;;;;;;;;;11.90;99.90;;;;;;4975477;28;20275;-86
2023/04/14 10:34:25;;;;;;;;;;;11.90;99.90;;;;;;4974940;28;19926;-86
2023/04/14 10:36:51;;;;;;;;;;;11.80;99.90;;;;;;4960442;28;19934;-87
2023/04/14 10:39:23;;;;;;;;;;;11.70;99.90;;;;;;4961411;28;19926;-88
2023/04/14 10:41:54;;;;;;;;;;;11.80;99.90;;;;;;4960828;28;20386;-88
2023/04/14 10:44:23;;;;;;;;;;;11.70;99.90;;;;;;4977901;28;19974;-86
2023/04/14 10:46:48;;;;;;;;;;;11.70;99.90;;;;;;4977521;28;19937;-86
2023/04/14 10:49:14;;;;;;;;;;;11.80;99.90;;;;;;4962469;28;19926;-86
2023/04/14 10:51:40;;;;;;;;;;;12.00;99.90;;;;;;4961771;28;19941;-84
2023/04/14 10:54:17;;;;;;;;;;;12.10;99.90;;;;;;4961243;28;19926;-85
2023/04/14 10:57:14;;;;;;;;;;;12.20;99.90;;;;;;4976710;28;19926;-86
2023/04/14 10:59:41;;;;;;;;;;;12.10;99.90;;;;;;4976536;28;19930;-85
2023/04/14 11:02:26;;;;;;;;;;;12.00;99.90;;;;;;4976596;28;19933;-86
2023/04/14 11:04:59;;;;;;;;;;;12.00;99.90;;;;;;4960798;28;19933;-85
2023/04/14 11:07:27;;;;;;;;;;;12.10;99.90;;;;;;4976577;28;19952;-86
2023/04/14 11:09:57;;;;;;;;;;;12.20;99.90;;;;;;4960433;28;19926;-86
2023/04/14 11:12:23;;;;;;;;;;;12.40;99.90;;;;;;4960313;28;19926;-87
2023/04/14 11:14:53;;;;;;;;;;;12.70;99.90;;;;;;4976977;28;19926;-89
2023/04/14 11:17:22;;;;;;;;;;;12.80;99.90;;;;;;4976475;28;19927;-86
2023/04/14 11:19:52;;;;;;;;;;;13.10;99.90;;;;;;4960418;28;19926;-87
2023/04/14 11:22:37;;;;;;;;;;;13.40;99.90;;;;;;4976348;28;19926;-86
2023/04/14 11:25:03;;;;;;;;;;;13.70;99.80;;;;;;4976286;28;19933;-86
2023/04/14 11:27:31;;;;;;;;;;;14.00;99.90;;;;;;4976306;28;19926;-87
2023/04/14 11:29:58;;;;;;;;;;;14.10;99.50;;;;;;4960100;28;19933;-84
2023/04/14 11:32:24;;;;;;;;;;;14.10;98.20;;;;;;4976341;28;19926;-85
2023/04/14 11:34:50;;;;;;;;;;;14.20;97.60;;;;;;4976760;28;19930;-86
2023/04/14 11:37:15;;;;;;;;;;;14.30;99.40;;;;;;4959868;28;19993;-88
2023/04/14 11:39:41;;;;;;;;;;;14.20;99.60;;;;;;4976791;28;19926;-86
2023/04/14 11:42:06;;;;;;;;;;;14.00;97.90;;;;;;4975951;28;20397;-86
2023/04/14 11:44:33;;;;;;;;;;;13.80;96.60;;;;;;4976010;28;19926;-87
2023/04/14 11:46:59;;;;;;;;;;;13.70;97.30;;;;;;4959223;28;19977;-87
2023/04/14 11:49:32;;;;;;;;;;;13.70;99.90;;;;;;4959614;28;20265;-86
2023/04/14 11:52:03;;;;;;;;;;;15.50;99.90;;;;;;4992835;28;19933;-87
2023/04/14 11:54:55;;;;;;;;;;;14.80;96.70;;;;;;4975525;28;19930;-86
2023/04/14 11:57:21;;;;;;;;;;;14.50;94.10;;;;;;4958970;28;19930;-86
2023/04/14 11:59:49;;;;;;;;;;;14.80;95.40;;;;;;4976508;28;19926;-87
2023/04/14 12:02:18;;;;;;;;;;;15.40;94.90;;;;;;4959134;28;20420;-86
2023/04/14 12:04:45;;;;;;;;;;;14.80;93.80;;;;;;4959469;28;19926;-86
2023/04/14 12:07:15;;;;;;;;;;;14.70;93.60;;;;;;4975078;28;19938;-86
2023/04/14 12:09:44;;;;;;;;;;;14.60;90.20;;;;;;4975401;28;19934;-86
2023/04/14 12:12:13;;;;;;;;;;;14.40;90.00;;;;;;4959062;28;19926;-86
2023/04/14 12:14:49;;;;;;;;;;;14.80;91.30;;;;;;4975334;28;19933;-87
2023/04/14 12:17:20;;;;;;;;;;;14.10;90.60;;;;;;4975194;28;20032;-87
2023/04/14 12:19:46;;;;;;;;;;;14.10;90.60;;;;;;4958843;28;19926;-87
2023/04/14 12:22:21;;;;;;;;;;;13.90;91.10;;;;;;4959950;28;19933;-86
2023/04/14 12:24:50;;;;;;;;;;;13.80;93.70;;;;;;4975898;28;20012;-88
2023/04/14 12:27:22;;;;;;;;;;;13.60;93.50;;;;;;4974765;28;20436;-86
2023/04/14 12:29:49;;;;;;;;;;;13.90;91.00;;;;;;4974737;28;19933;-86
2023/04/14 12:32:15;;;;;;;;;;;13.60;92.60;;;;;;4975019;28;19973;-86
2023/04/14 12:34:50;;;;;;;;;;;13.60;91.90;;;;;;4975035;28;19930;-87
2023/04/14 12:37:17;;;;;;;;;;;13.60;93.40;;;;;;4959125;28;19981;-87
2023/04/14 12:39:56;;;;;;;;;;;13.70;91.90;;;;;;4974820;28;19926;-86
2023/04/14 12:42:22;;;;;;;;;;;13.60;91.70;;;;;;4958833;28;20024;-87
2023/04/14 12:44:54;;;;;;;;;;;13.70;92.50;;;;;;4975539;28;20016;-86
2023/04/14 12:47:30;;;;;;;;;;;13.70;94.00;;;;;;4959099;28;19995;-87
2023/04/14 12:49:59;;;;;;;;;;;13.90;92.80;;;;;;4974209;28;19930;-86
2023/04/14 12:52:35;;;;;;;;;;;14.20;93.60;;;;;;4974580;28;19926;-88
2023/04/14 12:55:01;;;;;;;;;;;14.70;92.50;;;;;;4958904;28;20433;-84
2023/04/14 12:57:27;;;;;;;;;;;14.60;96.30;;;;;;4974478;28;19995;-86
2023/04/14 13:00:03;;;;;;;;;;;15.00;96.70;;;;;;4973909;28;19926;-87
2023/04/14 13:02:34;;;;;;;;;;;15.60;92.40;;;;;;4958681;28;20021;-87
2023/04/14 13:05:03;;;;;;;;;;;14.90;88.50;;;;;;4974269;28;19988;-87
2023/04/14 13:07:29;;;;;;;;;;;15.50;92.30;;;;;;4958379;28;20365;-86
2023/04/14 13:09:56;;;;;;;;;;;15.10;91.00;;;;;;4974369;28;19933;-87
2023/04/14 13:12:39;;;;;;;;;;;15.90;89.90;;;;;;4958298;28;19926;-87
2023/04/14 13:15:05;;;;;;;;;;;15.50;89.30;;;;;;4959033;28;19950;-87
2023/04/14 13:17:41;;;;;;;;;;;15.60;91.50;;;;;;4974276;28;19988;-86
2023/04/14 13:20:29;;;;;;;;;;;15.10;85.70;;;;;;4959064;28;20262;-86
2023/04/14 13:23:12;;;;;;;;;;;15.00;92.40;;;;;;4974198;28;19933;-87
2023/04/14 13:25:40;;;;;;;;;;;14.80;91.30;;;;;;4958957;28;19934;-87
2023/04/14 13:28:08;;;;;;;;;;;14.60;90.10;;;;;;4974089;28;19930;-87
2023/04/14 13:30:37;;;;;;;;;;;14.60;92.90;;;;;;4975465;28;19930;-86
2023/04/14 13:33:03;;;;;;;;;;;14.60;89.40;;;;;;4974721;28;19942;-85
2023/04/14 13:35:28;;;;;;;;;;;13.50;90.20;;;;;;4974017;28;20042;-86
2023/04/14 13:37:54;;;;;;;;;;;14.50;90.40;;;;;;4958034;28;20025;-86
2023/04/14 13:40:22;;;;;;;;;;;14.60;91.00;;;;;;4973978;28;19930;-86
2023/04/14 13:42:50;;;;;;;;;;;14.80;88.30;;;;;;4974206;28;19926;-86
2023/04/14 13:45:16;;;;;;;;;;;14.90;83.10;;;;;;4957812;28;20021;-86
2023/04/14 13:47:46;;;;;;;;;;;15.00;89.20;;;;;;4974019;28;20022;-88
2023/04/14 13:50:14;;;;;;;;;;;15.30;82.60;;;;;;4957332;28;19933;-86
2023/04/14 13:52:40;;;;;;;;;;;15.30;86.20;;;;;;4958101;28;19993;-88
2023/04/14 13:55:13;;;;;;;;;;;16.00;85.90;;;;;;4973503;28;20017;-87
2023/04/14 13:57:44;;;;;;;;;;;15.90;80.60;;;;;;4957484;28;20013;-87
2023/04/14 14:00:13;;;;;;;;;;;16.00;85.30;;;;;;4973617;28;20077;-87
2023/04/14 14:02:41;;;;;;;;;;;15.70;87.30;;;;;;4974673;28;19933;-88
2023/04/14 14:05:15;;;;;;;;;;;15.90;86.60;;;;;;4957535;28;19934;-88
2023/04/14 14:07:40;;;;;;;;;;;16.20;80.20;;;;;;4974406;28;19930;-89
2023/04/14 14:10:09;;;;;;;;;;;14.50;82.80;;;;;;4958808;28;19932;-88
2023/04/14 14:12:35;;;;;;;;;;;16.50;82.90;;;;;;4961829;28;19926;-88
2023/04/14 14:15:03;;;;;;;;;;;16.50;81.30;;;;;;4962399;28;19926;-87
2023/04/14 14:17:39;;;;;;;;;;;16.30;80.10;;;;;;4978428;28;19926;-88
2023/04/14 14:20:08;;;;;;;;;;;16.00;82.50;;;;;;4978472;28;19926;-86
2023/04/14 14:22:34;;;;;;;;;;;15.70;78.10;;;;;;4977482;28;19926;-88
2023/04/14 14:25:00;;;;;;;;;;;15.90;80.50;;;;;;4978207;28;20017;-87
2023/04/14 14:27:26;;;;;;;;;;;15.70;80.80;;;;;;4976894;28;20042;-88
2023/04/14 14:29:57;;;;;;;;;;;16.70;84.20;;;;;;4961612;28;20025;-87
2023/04/14 14:32:34;;;;;;;;;;;16.00;82.90;;;;;;4977044;28;19961;-88
2023/04/14 14:35:01;;;;;;;;;;;16.10;76.70;;;;;;4961579;28;20282;-87